createdAt,value
2023-05-04T00:00:27.146Z,55.36
2023-05-04T00:03:14.839Z,55.01
2023-05-04T00:05:44.478Z,55.15
2023-05-04T00:08:13.459Z,56.01
2023-05-04T00:10:42.682Z,56.23
2023-05-04T00:13:11.806Z,56.36
2023-05-04T00:15:41.408Z,56.20
2023-05-04T00:18:10.313Z,56.35
2023-05-04T00:20:39.454Z,56.43
2023-05-04T00:23:08.333Z,56.44
2023-05-04T00:25:38.381Z,56.19
2023-05-04T00:28:07.252Z,56.62
2023-05-04T00:30:36.134Z,56.10
2023-05-04T00:33:05.075Z,56.11
2023-05-04T00:35:34.040Z,57.05
2023-05-04T00:38:04.825Z,56.63
2023-05-04T00:40:34.716Z,56.88
2023-05-04T00:43:03.909Z,57.21
2023-05-04T00:45:32.974Z,57.35
2023-05-04T00:48:02.471Z,57.38
2023-05-04T00:50:31.889Z,56.85
2023-05-04T00:53:05.748Z,57.46
2023-05-04T00:55:36.447Z,57.71
2023-05-04T00:58:06.886Z,57.30
2023-05-04T01:00:36.771Z,56.81
2023-05-04T01:03:06.167Z,56.98
2023-05-04T01:05:43.067Z,57.61
2023-05-04T01:08:17.618Z,57.96
2023-05-04T01:10:54.558Z,57.52
2023-05-04T01:13:24.613Z,58.10
2023-05-04T01:15:55.041Z,57.28
2023-05-04T01:18:24.913Z,58.16
2023-05-04T01:20:54.235Z,58.05
2023-05-04T01:23:25.796Z,58.32
2023-05-04T01:26:02.720Z,58.48
2023-05-04T01:28:39.660Z,57.85
2023-05-04T01:31:13.668Z,58.30
2023-05-04T01:33:45.816Z,58.21
2023-05-04T01:36:15.136Z,58.20
2023-05-04T01:38:44.132Z,58.23
2023-05-04T01:41:12.945Z,58.94
2023-05-04T01:43:42.214Z,58.47
2023-05-04T01:46:11.736Z,58.44
2023-05-04T01:48:40.787Z,59.22
2023-05-04T01:51:09.777Z,58.72
2023-05-04T01:53:38.696Z,58.51
2023-05-04T01:56:08.378Z,59.33
2023-05-04T01:58:37.304Z,58.79
2023-05-04T02:01:06.632Z,58.39
2023-05-04T02:03:36.298Z,58.76
2023-05-04T02:06:05.612Z,58.81
2023-05-04T02:08:34.605Z,58.77
2023-05-04T02:11:03.990Z,58.78
2023-05-04T02:13:33.008Z,58.94
2023-05-04T02:16:01.993Z,59.22
2023-05-04T02:18:32.400Z,59.17
2023-05-04T02:21:02.025Z,58.74
2023-05-04T02:23:31.326Z,59.55
2023-05-04T02:26:01.088Z,58.94
2023-05-04T02:28:32.442Z,59.38
2023-05-04T02:31:01.615Z,59.32
2023-05-04T02:33:33.544Z,59.51
2023-05-04T02:36:03.137Z,59.22
2023-05-04T02:38:32.648Z,60.04
2023-05-04T02:41:01.903Z,59.68
2023-05-04T02:43:31.741Z,60.15
2023-05-04T02:46:02.044Z,59.91
2023-05-04T02:48:34.163Z,60.23
2023-05-04T02:51:04.053Z,60.37
2023-05-04T02:53:32.981Z,60.32
2023-05-04T02:56:01.962Z,59.88
2023-05-04T02:58:32.586Z,59.66
2023-05-04T03:01:04.061Z,60.74
2023-05-04T03:03:33.276Z,59.79
2023-05-04T03:06:02.619Z,60.56
2023-05-04T03:08:31.986Z,59.98
2023-05-04T03:11:01.249Z,60.57
2023-05-04T03:13:31.968Z,60.79
2023-05-04T03:16:00.781Z,60.40
2023-05-04T03:18:32.120Z,60.31
2023-05-04T03:21:03.115Z,61.08
2023-05-04T03:23:32.030Z,60.64
2023-05-04T03:26:01.644Z,60.49
2023-05-04T03:28:32.567Z,61.08
2023-05-04T03:31:01.682Z,60.65
2023-05-04T03:33:32.640Z,60.79
2023-05-04T03:36:01.768Z,60.63
2023-05-04T03:38:32.347Z,61.17
2023-05-04T03:41:01.988Z,60.82
2023-05-04T03:43:31.777Z,61.49
2023-05-04T03:46:03.987Z,61.37
2023-05-04T03:48:33.422Z,61.54
2023-05-04T03:51:03.873Z,60.96
2023-05-04T03:53:35.098Z,61.02
2023-05-04T03:56:04.298Z,60.97
2023-05-04T03:58:33.558Z,61.00
2023-05-04T04:01:04.492Z,61.63
2023-05-04T04:03:35.819Z,61.76
2023-05-04T04:06:05.531Z,61.72
2023-05-04T04:08:37.279Z,60.99
2023-05-04T04:11:06.326Z,61.15
2023-05-04T04:13:35.478Z,60.72
2023-05-04T04:16:05.156Z,61.71
2023-05-04T04:18:34.407Z,60.92
2023-05-04T04:21:03.427Z,61.08
2023-05-04T04:23:32.332Z,60.09
2023-05-04T04:26:05.885Z,59.37
2023-05-04T04:28:37.739Z,59.49
2023-05-04T04:31:07.230Z,59.22
2023-05-04T04:33:36.304Z,58.83
2023-05-04T04:36:06.604Z,57.47
2023-05-04T04:38:37.339Z,55.47
2023-05-04T04:41:07.344Z,55.26
2023-05-04T04:43:36.268Z,53.58
2023-05-04T04:46:10.011Z,52.54
2023-05-04T04:48:39.596Z,51.84
2023-05-04T04:51:11.715Z,51.17
2023-05-04T04:53:41.957Z,49.96
2023-05-04T04:56:11.731Z,48.85
2023-05-04T04:58:41.302Z,47.94
2023-05-04T05:01:10.484Z,46.92
2023-05-04T05:03:40.047Z,46.08
2023-05-04T05:06:09.223Z,45.57
2023-05-04T05:08:38.478Z,44.14
2023-05-04T05:11:07.743Z,42.83
2023-05-04T05:13:39.434Z,41.87
2023-05-04T05:16:09.606Z,41.11
2023-05-04T05:18:38.642Z,39.91
2023-05-04T05:21:08.914Z,39.15
2023-05-04T05:23:38.032Z,38.73
2023-05-04T05:26:11.372Z,37.70
2023-05-04T05:28:40.919Z,36.56
2023-05-04T05:31:09.914Z,35.66
2023-05-04T05:33:40.902Z,35.07
2023-05-04T05:36:10.654Z,35.27
2023-05-04T05:38:39.547Z,36.05
2023-05-04T05:41:09.566Z,36.12
2023-05-04T05:43:38.318Z,35.81
2023-05-04T05:46:08.599Z,35.72
2023-05-04T05:48:38.154Z,36.19
2023-05-04T05:51:07.012Z,36.43
2023-05-04T05:53:35.853Z,36.07
2023-05-04T05:56:07.699Z,35.11
2023-05-04T05:58:37.056Z,35.81
2023-05-04T06:01:05.915Z,35.81
2023-05-04T06:03:35.142Z,35.70
2023-05-04T06:06:07.411Z,36.07
2023-05-04T06:08:36.826Z,35.82
2023-05-04T06:11:06.017Z,35.85
2023-05-04T06:13:34.907Z,36.55
2023-05-04T06:16:06.683Z,36.85
2023-05-04T06:18:39.985Z,36.71
2023-05-04T06:21:09.587Z,36.56
2023-05-04T06:23:39.458Z,37.35
2023-05-04T06:26:08.876Z,37.55
2023-05-04T06:28:38.405Z,37.68
2023-05-04T06:31:07.902Z,37.01
2023-05-04T06:33:37.743Z,37.43
2023-05-04T06:36:09.516Z,37.53
2023-05-04T06:38:43.013Z,37.32
2023-05-04T06:41:12.780Z,37.81
2023-05-04T06:43:42.243Z,37.39
2023-05-04T06:46:12.104Z,37.85
2023-05-04T06:48:41.295Z,37.75
2023-05-04T06:51:10.310Z,38.09
2023-05-04T06:53:39.257Z,37.61
2023-05-04T06:56:08.966Z,37.78
2023-05-04T06:58:42.619Z,37.64
2023-05-04T07:01:12.135Z,37.36
2023-05-04T07:03:41.154Z,38.23
2023-05-04T07:06:10.769Z,38.38
2023-05-04T07:08:40.752Z,38.18
2023-05-04T07:11:11.356Z,37.67
2023-05-04T07:13:40.350Z,37.73
2023-05-04T07:16:10.029Z,37.52
2023-05-04T07:18:39.938Z,37.89
2023-05-04T07:23:45.781Z,38.06
2023-05-04T07:26:14.710Z,37.78
2023-05-04T07:28:43.652Z,37.43
2023-05-04T07:31:14.061Z,38.32
2023-05-04T07:33:43.538Z,38.24
2023-05-04T07:36:13.086Z,37.92
2023-05-04T07:38:42.406Z,37.82
2023-05-04T07:41:12.260Z,37.93
2023-05-04T07:43:41.477Z,38.04
2023-05-04T07:46:10.556Z,38.42
2023-05-04T07:48:39.895Z,38.23
2023-05-04T07:51:14.221Z,38.17
2023-05-04T07:53:44.665Z,38.31
2023-05-04T07:56:14.318Z,37.66
2023-05-04T07:58:44.252Z,38.22
2023-05-04T08:01:13.672Z,37.94
2023-05-04T08:03:48.155Z,37.72
2023-05-04T08:06:24.426Z,37.73
2023-05-04T08:08:54.466Z,37.88
2023-05-04T08:11:24.271Z,37.94
2023-05-04T08:13:53.641Z,37.66
2023-05-04T08:16:22.889Z,36.98
2023-05-04T08:18:56.970Z,36.99
2023-05-04T08:21:27.860Z,37.19
2023-05-04T08:23:58.994Z,36.93
2023-05-04T08:26:28.239Z,37.05
2023-05-04T08:29:07.297Z,37.28
2023-05-04T08:31:38.554Z,36.80
2023-05-04T08:34:07.832Z,36.53
2023-05-04T08:36:37.027Z,36.66
2023-05-04T08:39:06.894Z,36.38
2023-05-04T08:41:40.723Z,35.92
2023-05-04T08:44:10.988Z,35.98
2023-05-04T08:46:41.826Z,35.56
2023-05-04T08:49:11.377Z,35.35
2023-05-04T08:51:41.152Z,35.41
2023-05-04T08:54:12.276Z,34.88
2023-05-04T08:56:42.694Z,34.99
2023-05-04T08:59:18.959Z,34.10
2023-05-04T09:01:50.139Z,33.32
2023-05-04T09:04:20.358Z,33.68
2023-05-04T09:06:49.530Z,33.71
2023-05-04T09:09:19.386Z,32.89
2023-05-04T09:11:48.348Z,32.80
2023-05-04T09:14:17.522Z,32.85
2023-05-04T09:16:46.534Z,32.31
2023-05-04T09:19:19.869Z,32.48
2023-05-04T09:21:50.823Z,32.63
2023-05-04T09:24:30.470Z,32.36
2023-05-04T09:27:10.837Z,32.49
2023-05-04T09:29:42.269Z,32.14
2023-05-04T09:32:14.586Z,32.09
2023-05-04T09:34:52.231Z,32.14
2023-05-04T09:37:22.096Z,31.63
2023-05-04T09:39:55.798Z,31.69
2023-05-04T09:42:27.164Z,31.18
2023-05-04T09:45:03.863Z,31.02
2023-05-04T09:47:37.340Z,31.00
2023-05-04T09:50:16.844Z,30.36
2023-05-04T09:52:48.713Z,30.79
2023-05-04T09:55:19.974Z,30.79
2023-05-04T09:57:51.126Z,29.80
2023-05-04T10:00:21.176Z,29.93
2023-05-04T10:02:50.359Z,30.52
2023-05-04T10:05:21.351Z,30.44
2023-05-04T10:07:51.709Z,30.45
2023-05-04T10:10:20.729Z,30.01
2023-05-04T10:12:49.699Z,29.54
2023-05-04T10:15:20.719Z,29.61
2023-05-04T10:18:03.283Z,29.28
2023-05-04T10:20:50.607Z,28.98
2023-05-04T10:23:46.424Z,29.58
2023-05-04T10:26:50.765Z,29.36
2023-05-04T10:29:23.749Z,29.26
2023-05-04T10:31:53.430Z,29.45
2023-05-04T10:34:27.685Z,28.95
2023-05-04T10:36:58.793Z,28.80
2023-05-04T10:39:30.668Z,28.98
2023-05-04T10:42:04.149Z,28.09
2023-05-04T10:44:34.512Z,28.30
2023-05-04T10:47:06.179Z,28.11
2023-05-04T10:49:36.555Z,27.79
2023-05-04T10:52:15.635Z,28.03
2023-05-04T10:54:44.833Z,28.16
2023-05-04T10:57:17.069Z,27.98
2023-05-04T10:59:56.980Z,28.03
2023-05-04T11:02:36.090Z,27.30
2023-05-04T11:05:15.580Z,27.76
2023-05-04T11:07:45.149Z,27.17
2023-05-04T11:10:24.969Z,27.73
2023-05-04T11:13:05.423Z,27.65
2023-05-04T11:15:45.304Z,27.12
2023-05-04T11:18:15.455Z,27.06
2023-05-04T11:20:45.784Z,27.12
2023-05-04T11:23:17.615Z,27.75
2023-05-04T11:25:46.937Z,27.49
2023-05-04T11:28:17.218Z,27.65
2023-05-04T11:30:47.640Z,26.83
2023-05-04T11:33:18.710Z,26.88
2023-05-04T11:35:48.189Z,26.94
2023-05-04T11:38:20.328Z,26.80
2023-05-04T11:40:49.949Z,27.06
2023-05-04T11:43:19.511Z,26.83
2023-05-04T11:45:49.463Z,27.11
2023-05-04T11:48:18.990Z,26.95
2023-05-04T11:50:48.522Z,26.72
2023-05-04T11:53:21.350Z,26.87
2023-05-04T11:55:52.865Z,26.81
2023-05-04T11:58:26.970Z,26.67
2023-05-04T12:01:00.694Z,26.99
2023-05-04T12:03:44.077Z,26.32
2023-05-04T12:06:34.311Z,26.45
2023-05-04T12:09:05.667Z,26.15
2023-05-04T12:11:35.517Z,26.43
2023-05-04T12:14:06.430Z,26.03
2023-05-04T12:16:36.843Z,25.94
2023-05-04T12:19:09.954Z,25.80
2023-05-04T12:21:51.084Z,26.49
2023-05-04T12:24:21.956Z,26.06
2023-05-04T12:26:51.252Z,26.15
2023-05-04T12:29:20.926Z,26.13
2023-05-04T12:31:49.945Z,26.36
2023-05-04T12:34:19.054Z,26.08
2023-05-04T12:36:50.327Z,26.49
2023-05-04T12:39:20.443Z,25.98
2023-05-04T12:41:49.422Z,26.69
2023-05-04T12:44:18.579Z,26.58
2023-05-04T12:46:48.073Z,26.71
2023-05-04T12:49:17.493Z,26.60
2023-05-04T12:51:46.731Z,26.38
2023-05-04T12:54:15.869Z,26.21
2023-05-04T12:56:44.856Z,26.30
2023-05-04T12:59:13.697Z,26.34
2023-05-04T13:01:44.689Z,26.04
2023-05-04T13:04:13.879Z,26.33
2023-05-04T13:06:42.966Z,26.20
2023-05-04T13:09:12.591Z,26.52
2023-05-04T13:11:41.982Z,26.42
2023-05-04T13:14:10.954Z,26.76
2023-05-04T13:16:41.153Z,26.14
2023-05-04T13:19:11.854Z,26.42
2023-05-04T13:21:44.858Z,26.25
2023-05-04T13:24:14.145Z,26.25
2023-05-04T13:26:43.323Z,26.21
2023-05-04T13:29:12.424Z,26.18
2023-05-04T13:31:44.861Z,26.16
2023-05-04T13:34:14.105Z,26.37
2023-05-04T13:36:43.350Z,26.46
2023-05-04T13:39:12.668Z,26.71
2023-05-04T13:41:41.753Z,26.84
2023-05-04T13:44:10.751Z,26.21
2023-05-04T13:46:42.208Z,26.29
2023-05-04T13:49:11.196Z,26.18
2023-05-04T13:51:40.294Z,26.16
2023-05-04T13:54:09.279Z,26.23
2023-05-04T13:56:38.590Z,26.44
2023-05-04T13:59:07.688Z,26.09
2023-05-04T14:01:39.679Z,25.92
2023-05-04T14:04:09.406Z,25.85
2023-05-04T14:06:41.621Z,26.32
2023-05-04T14:09:10.873Z,25.90
2023-05-04T14:11:40.161Z,26.18
2023-05-04T14:14:09.150Z,26.20
2023-05-04T14:16:40.941Z,26.38
2023-05-04T14:19:09.976Z,26.50
2023-05-04T14:21:38.955Z,26.55
2023-05-04T14:24:08.186Z,26.74
2023-05-04T14:26:38.608Z,26.30
2023-05-04T14:29:11.308Z,26.17
2023-05-04T14:31:41.931Z,26.61
2023-05-04T14:34:14.282Z,26.58
2023-05-04T14:36:44.142Z,26.86
2023-05-04T14:39:14.146Z,26.64
2023-05-04T14:41:43.423Z,26.84
2023-05-04T14:44:12.729Z,26.68
2023-05-04T14:46:43.447Z,26.54
2023-05-04T14:49:21.520Z,26.62
2023-05-04T14:51:58.152Z,26.72
2023-05-04T14:54:27.448Z,26.66
2023-05-04T14:56:56.354Z,26.71
2023-05-04T14:59:26.475Z,26.78
2023-05-04T15:01:57.045Z,26.83
2023-05-04T15:04:26.166Z,27.20
2023-05-04T15:06:55.768Z,27.00
2023-05-04T15:09:25.114Z,26.95
2023-05-04T15:11:54.262Z,27.29
2023-05-04T15:14:23.230Z,27.33
2023-05-04T15:16:52.325Z,27.08
2023-05-04T15:19:21.241Z,27.52
2023-05-04T15:21:51.393Z,27.58
2023-05-04T15:24:22.203Z,27.58
2023-05-04T15:26:51.144Z,27.39
2023-05-04T15:29:20.636Z,27.66
2023-05-04T15:31:49.845Z,27.50
2023-05-04T15:34:18.787Z,27.90
2023-05-04T15:36:48.312Z,27.60
2023-05-04T15:39:17.744Z,27.60
2023-05-04T15:41:46.727Z,27.72
2023-05-04T15:44:15.722Z,27.93
2023-05-04T15:46:46.375Z,28.04
2023-05-04T15:49:15.677Z,27.89
2023-05-04T15:51:44.758Z,28.17
2023-05-04T15:54:13.821Z,28.41
2023-05-04T15:56:43.292Z,28.59
2023-05-04T15:59:13.194Z,28.77
2023-05-04T16:01:42.282Z,28.54
2023-05-04T16:04:11.547Z,28.21
2023-05-04T16:06:40.462Z,28.58
2023-05-04T16:09:10.792Z,28.48
2023-05-04T16:11:40.485Z,28.88
2023-05-04T16:14:09.358Z,29.28
2023-05-04T16:16:42.066Z,28.94
2023-05-04T16:19:11.794Z,28.97
2023-05-04T16:21:40.983Z,28.83
2023-05-04T16:24:12.619Z,28.89
2023-05-04T16:26:45.551Z,28.63
2023-05-04T16:29:15.318Z,28.69
2023-05-04T16:31:47.296Z,29.06
2023-05-04T16:34:16.286Z,29.35
2023-05-04T16:36:45.281Z,28.86
2023-05-04T16:39:14.356Z,29.23
2023-05-04T16:41:46.354Z,29.25
2023-05-04T16:44:16.286Z,29.05
2023-05-04T16:46:45.271Z,29.44
2023-05-04T16:49:14.786Z,29.36
2023-05-04T16:52:03.009Z,29.56
2023-05-04T16:54:33.977Z,29.76
2023-05-04T16:57:03.934Z,29.32
2023-05-04T16:59:38.473Z,29.45
2023-05-04T17:02:08.640Z,29.51
2023-05-04T17:05:12.473Z,29.85
2023-05-04T17:07:57.771Z,29.73
2023-05-04T17:10:54.680Z,30.31
2023-05-04T17:21:26.691Z,30.62
2023-05-04T17:24:17.486Z,30.99
2023-05-04T17:29:54.322Z,31.45
2023-05-04T17:33:15.802Z,31.57
2023-05-04T17:36:47.344Z,31.65
2023-05-04T18:00:32.627Z,32.95
2023-05-04T18:03:01.686Z,32.78
2023-05-04T18:05:32.039Z,33.49
2023-05-04T18:08:01.130Z,34.25
2023-05-04T18:10:32.911Z,34.62
2023-05-04T18:13:02.269Z,34.50
2023-05-04T18:15:32.038Z,35.33
2023-05-04T18:18:01.247Z,35.18
2023-05-04T18:20:30.677Z,35.74
2023-05-04T18:22:59.977Z,36.02
2023-05-04T18:25:31.480Z,36.02
2023-05-04T18:28:02.518Z,37.07
2023-05-04T18:30:33.211Z,37.33
2023-05-04T18:33:02.655Z,37.22
2023-05-04T18:35:32.310Z,37.70
2023-05-04T18:38:01.168Z,37.78
2023-05-04T18:40:31.639Z,37.71
2023-05-04T18:43:00.493Z,38.07
2023-05-04T18:45:31.463Z,38.03
2023-05-04T18:48:00.846Z,38.21
2023-05-04T18:50:30.841Z,39.03
2023-05-04T18:52:59.911Z,38.66
2023-05-04T18:55:31.647Z,38.79
2023-05-04T18:58:03.227Z,39.18
2023-05-04T19:00:33.354Z,39.31
2023-05-04T19:03:02.357Z,39.89
2023-05-04T19:05:31.701Z,40.25
2023-05-04T19:08:00.956Z,39.61
2023-05-04T19:10:31.414Z,40.54
2023-05-04T19:13:00.980Z,40.33
2023-05-04T19:15:33.113Z,40.12
2023-05-04T19:18:02.460Z,40.97
2023-05-04T19:20:31.908Z,40.71
2023-05-04T19:23:00.731Z,40.61
2023-05-04T19:25:34.965Z,40.95
2023-05-04T19:28:08.198Z,41.31
2023-05-04T19:30:38.076Z,41.51
2023-05-04T19:33:07.698Z,41.54
2023-05-04T19:35:37.307Z,41.79
2023-05-04T19:38:06.418Z,41.83
2023-05-04T19:40:35.799Z,41.76
2023-05-04T19:43:07.412Z,41.93
2023-05-04T19:45:36.630Z,42.12
2023-05-04T19:48:06.104Z,42.49
2023-05-04T19:50:35.128Z,42.72
2023-05-04T19:53:04.319Z,42.69
2023-05-04T19:55:33.598Z,43.19
2023-05-04T19:58:03.237Z,42.68
2023-05-04T20:00:33.478Z,43.13
2023-05-04T20:03:02.573Z,42.75
2023-05-04T20:05:31.779Z,43.05
2023-05-04T20:08:03.292Z,43.55
2023-05-04T20:10:33.931Z,43.36
2023-05-04T20:13:03.077Z,43.36
2023-05-04T20:15:34.242Z,43.04
2023-05-04T20:18:03.231Z,43.33
2023-05-04T20:20:33.348Z,43.38
2023-05-04T20:23:02.751Z,43.76
2023-05-04T20:25:32.683Z,43.54
2023-05-04T20:28:01.624Z,43.52
2023-05-04T20:30:30.828Z,43.10
2023-05-04T20:33:00.388Z,42.81
2023-05-04T20:35:30.763Z,43.12
2023-05-04T20:37:59.766Z,43.55
2023-05-04T20:40:30.282Z,43.38
2023-05-04T20:42:59.188Z,43.36
2023-05-04T20:45:32.292Z,43.18
2023-05-04T20:48:03.328Z,43.06
2023-05-04T20:50:32.452Z,43.09
2023-05-04T20:53:01.681Z,43.30
2023-05-04T20:55:32.537Z,43.60
2023-05-04T20:58:01.699Z,43.67
2023-05-04T21:00:33.459Z,43.48
2023-05-04T21:03:07.571Z,43.20
2023-05-04T21:05:39.490Z,43.71
2023-05-04T21:08:08.267Z,43.43
2023-05-04T21:10:37.538Z,43.72
2023-05-04T21:13:06.472Z,43.78
2023-05-04T21:15:38.164Z,44.03
2023-05-04T21:18:07.480Z,44.26
2023-05-04T21:20:36.361Z,44.45
2023-05-04T21:23:05.294Z,44.75
2023-05-04T21:25:34.442Z,44.36
2023-05-04T21:28:03.713Z,44.99
2023-05-04T21:30:32.734Z,44.66
2023-05-04T21:33:01.543Z,45.02
2023-05-04T21:35:31.206Z,44.91
2023-05-04T21:38:00.274Z,45.03
2023-05-04T21:40:30.006Z,45.07
2023-05-04T21:42:59.576Z,44.50
2023-05-04T21:45:30.992Z,45.28
2023-05-04T21:48:01.953Z,45.29
2023-05-04T21:50:32.519Z,45.28
2023-05-04T21:53:01.445Z,45.07
2023-05-04T21:55:31.137Z,45.40
2023-05-04T21:58:00.124Z,45.91
2023-05-04T22:00:30.473Z,45.72
2023-05-04T22:03:00.587Z,45.94
2023-05-04T22:05:31.006Z,45.68
2023-05-04T22:08:00.620Z,45.61
2023-05-04T22:10:30.143Z,46.04
2023-05-04T22:12:59.246Z,45.96
2023-05-04T22:15:38.339Z,46.10
2023-05-04T22:18:11.075Z,46.09
2023-05-04T22:20:40.727Z,45.95
2023-05-04T22:23:09.782Z,46.22
2023-05-04T22:25:39.244Z,46.46
2023-05-04T22:28:08.144Z,46.27
2023-05-04T22:30:37.389Z,46.33
2023-05-04T22:33:09.538Z,46.57
2023-05-04T22:35:39.448Z,46.53
2023-05-04T22:38:09.519Z,47.21
2023-05-04T22:40:40.446Z,47.08
2023-05-04T22:43:10.073Z,47.25
2023-05-04T22:45:39.840Z,47.06
2023-05-04T22:48:09.621Z,47.25
2023-05-04T22:50:38.550Z,47.30
2023-05-04T22:53:09.327Z,47.30
2023-05-04T22:55:38.366Z,47.71
2023-05-04T22:58:08.020Z,47.21
2023-05-04T23:00:37.341Z,47.60
2023-05-04T23:03:07.146Z,47.96
2023-05-04T23:05:36.023Z,47.64
2023-05-04T23:08:06.396Z,47.71
2023-05-04T23:10:35.497Z,48.08
2023-05-04T23:13:04.892Z,47.95
2023-05-04T23:15:33.770Z,48.19
2023-05-04T23:18:03.107Z,48.53
2023-05-04T23:20:32.548Z,48.45
2023-05-04T23:23:01.910Z,48.62
2023-05-04T23:25:32.235Z,48.93
2023-05-04T23:28:01.548Z,49.16
2023-05-04T23:30:31.028Z,48.88
2023-05-04T23:33:00.219Z,48.88
2023-05-04T23:35:30.045Z,49.22
2023-05-04T23:37:59.353Z,49.18
2023-05-04T23:40:28.853Z,48.95
2023-05-04T23:42:59.274Z,49.77
2023-05-04T23:45:28.386Z,49.30
2023-05-04T23:47:58.005Z,49.98
2023-05-04T23:50:26.975Z,49.65
2023-05-04T23:52:56.569Z,49.15
2023-05-04T23:55:25.665Z,49.44
2023-05-04T23:57:54.835Z,50.30
